createdAt,value
2019-06-26T00:02:50.166Z,74.35
2019-06-26T00:07:54.479Z,75.21
2019-06-26T00:12:58.991Z,76.25
2019-06-26T00:18:03.688Z,76.53
2019-06-26T00:23:07.735Z,76.11
2019-06-26T00:28:11.805Z,76.47
2019-06-26T00:33:15.798Z,78.54
2019-06-26T00:38:20.101Z,78.68
2019-06-26T00:43:24.431Z,78.11
2019-06-26T00:48:28.423Z,78.03
2019-06-26T00:53:32.539Z,78.83
2019-06-26T00:58:36.551Z,79.15
2019-06-26T01:03:40.954Z,79.52
2019-06-26T01:08:45.022Z,80.57
2019-06-26T01:13:58.137Z,81.05
2019-06-26T01:18:54.761Z,81.12
2019-06-26T01:23:59.580Z,82.95
2019-06-26T01:29:03.647Z,82.10
2019-06-26T01:34:07.737Z,82.70
2019-06-26T01:39:11.819Z,83.55
2019-06-26T01:44:15.909Z,83.80
2019-06-26T01:49:19.858Z,84.62
2019-06-26T01:54:23.847Z,84.87
2019-06-26T01:59:28.231Z,85.78
2019-06-26T02:04:32.221Z,85.90
2019-06-26T02:09:36.252Z,86.87
2019-06-26T02:14:40.547Z,87.61
2019-06-26T02:19:44.599Z,88.58
2019-06-26T02:24:48.666Z,89.07
2019-06-26T02:29:52.675Z,89.40
2019-06-26T02:34:56.661Z,90.24
2019-06-26T02:40:00.675Z,90.06
2019-06-26T02:45:05.825Z,90.62
2019-06-26T02:50:09.961Z,92.26
2019-06-26T02:55:14.124Z,92.77
2019-06-26T03:00:18.176Z,92.49
2019-06-26T03:05:22.336Z,92.58
2019-06-26T03:10:26.826Z,92.10
2019-06-26T03:15:31.211Z,91.59
2019-06-26T03:20:39.063Z,92.36
2019-06-26T03:25:43.103Z,91.35
2019-06-26T03:30:47.449Z,90.55
2019-06-26T03:35:51.489Z,88.94
2019-06-26T03:40:55.515Z,87.56
2019-06-26T03:45:59.554Z,85.94
2019-06-26T03:51:03.702Z,85.63
2019-06-26T03:56:07.790Z,85.38
2019-06-26T04:01:11.916Z,83.84
2019-06-26T04:06:15.989Z,82.52
2019-06-26T04:11:20.005Z,84.76
2019-06-26T04:16:24.010Z,82.26
2019-06-26T04:21:28.110Z,79.78
2019-06-26T04:26:32.169Z,79.62
2019-06-26T04:31:36.161Z,74.62
2019-06-26T04:36:40.233Z,51.57
2019-06-26T04:41:44.266Z,40.32
2019-06-26T04:46:48.640Z,37.50
2019-06-26T04:51:52.667Z,35.37
2019-06-26T04:56:56.886Z,33.43
2019-06-26T05:02:00.914Z,32.37
2019-06-26T05:07:05.318Z,31.90
2019-06-26T05:12:09.361Z,30.97
2019-06-26T05:17:13.385Z,30.96
2019-06-26T05:22:17.756Z,30.85
2019-06-26T05:27:21.737Z,28.82
2019-06-26T05:32:25.876Z,29.04
2019-06-26T05:37:30.247Z,26.99
2019-06-26T05:42:34.597Z,26.23
2019-06-26T05:47:38.624Z,26.76
2019-06-26T05:52:43.332Z,29.00
2019-06-26T05:57:48.622Z,25.57
2019-06-26T06:02:53.953Z,26.02
2019-06-26T06:07:58.297Z,25.36
2019-06-26T06:13:02.499Z,25.74
2019-06-26T06:18:06.532Z,24.47
2019-06-26T06:23:14.793Z,24.37
2019-06-26T06:28:19.249Z,25.26
2019-06-26T06:33:23.638Z,24.55
2019-06-26T06:38:28.041Z,24.54
2019-06-26T06:43:32.090Z,22.22
2019-06-26T06:48:36.388Z,21.91
2019-06-26T06:53:40.419Z,22.79
2019-06-26T06:58:44.457Z,23.47
2019-06-26T07:03:48.940Z,23.69
2019-06-26T07:08:52.924Z,23.33
2019-06-26T07:13:57.020Z,22.06
2019-06-26T07:19:01.066Z,22.61
2019-06-26T07:24:05.277Z,21.91
2019-06-26T07:29:09.365Z,22.14
2019-06-26T07:34:13.410Z,21.81
2019-06-26T07:39:17.515Z,21.60
2019-06-26T07:44:21.866Z,23.18
2019-06-26T07:49:26.368Z,22.99
2019-06-26T07:54:30.480Z,21.50
2019-06-26T07:59:35.012Z,22.50
2019-06-26T08:04:39.035Z,19.57
2019-06-26T08:09:43.099Z,20.84
2019-06-26T08:14:47.587Z,20.62
2019-06-26T08:19:52.012Z,20.19
2019-06-26T08:24:56.100Z,21.96
2019-06-26T08:30:00.170Z,20.59
2019-06-26T08:35:04.370Z,18.66
2019-06-26T08:40:08.806Z,22.33
2019-06-26T08:45:13.158Z,20.27
2019-06-26T08:50:26.472Z,21.85
2019-06-26T08:55:30.478Z,21.29
2019-06-26T09:00:34.518Z,20.55
2019-06-26T09:05:48.088Z,22.58
2019-06-26T09:10:45.294Z,21.27
2019-06-26T09:15:50.372Z,21.91
2019-06-26T09:20:54.595Z,22.11
2019-06-26T09:25:59.025Z,20.63
2019-06-26T09:31:04.592Z,20.92
2019-06-26T09:36:08.778Z,21.21
2019-06-26T09:41:13.269Z,23.47
2019-06-26T09:46:17.784Z,23.60
2019-06-26T09:51:21.835Z,23.16
2019-06-26T09:56:26.410Z,22.34
2019-06-26T10:01:30.570Z,23.28
2019-06-26T10:06:34.662Z,24.47
2019-06-26T10:11:42.741Z,21.99
2019-06-26T10:16:53.038Z,23.99
2019-06-26T10:22:09.778Z,26.19
2019-06-26T10:27:14.355Z,26.76
2019-06-26T10:32:20.215Z,24.87
2019-06-26T10:37:24.164Z,25.62
2019-06-26T10:42:28.328Z,25.63
2019-06-26T10:47:33.079Z,24.92
2019-06-26T10:52:37.613Z,25.44
2019-06-26T10:57:42.851Z,25.76
2019-06-26T11:02:46.905Z,25.92
2019-06-26T11:07:51.321Z,26.45
2019-06-26T11:12:55.414Z,26.62
2019-06-26T11:17:59.891Z,26.25
2019-06-26T11:23:04.080Z,26.03
2019-06-26T11:28:26.357Z,28.17
2019-06-26T11:33:48.640Z,26.63
2019-06-26T11:38:52.658Z,26.27
2019-06-26T11:43:56.693Z,26.79
2019-06-26T11:49:02.032Z,25.86
2019-06-26T11:54:06.398Z,25.86
2019-06-26T11:59:10.515Z,27.25
2019-06-26T12:04:14.646Z,27.57
2019-06-26T12:09:19.204Z,26.29
2019-06-26T12:14:23.237Z,29.24
2019-06-26T12:19:27.271Z,28.41
2019-06-26T12:24:32.378Z,28.12
2019-06-26T12:29:36.807Z,28.28
2019-06-26T12:34:44.964Z,27.73
2019-06-26T12:39:47.218Z,29.37
2019-06-26T12:44:51.252Z,29.04
2019-06-26T12:49:55.623Z,28.58
2019-06-26T12:54:59.799Z,28.58
2019-06-26T13:00:05.483Z,29.26
2019-06-26T13:05:11.445Z,29.25
2019-06-26T13:10:16.412Z,29.53
2019-06-26T13:15:20.597Z,30.08
2019-06-26T13:20:24.697Z,31.08
2019-06-26T13:25:28.743Z,29.33
2019-06-26T13:30:36.909Z,30.50
2019-06-26T13:35:40.911Z,30.63
2019-06-26T13:40:45.278Z,31.48
2019-06-26T13:45:49.446Z,30.55
2019-06-26T13:51:08.246Z,30.09
2019-06-26T13:55:59.412Z,31.07
2019-06-26T14:01:04.007Z,30.77
2019-06-26T14:06:08.674Z,31.24
2019-06-26T14:11:12.825Z,30.19
2019-06-26T14:16:19.859Z,31.30
2019-06-26T14:21:25.947Z,31.39
2019-06-26T14:26:30.782Z,31.49
2019-06-26T14:31:35.541Z,29.82
2019-06-26T14:36:39.795Z,29.86
2019-06-26T14:41:44.103Z,29.03
2019-06-26T14:46:49.543Z,29.46
2019-06-26T14:51:53.939Z,29.40
2019-06-26T14:56:58.987Z,29.65
2019-06-26T15:02:03.104Z,31.34
2019-06-26T15:07:07.147Z,33.28
2019-06-26T15:12:11.340Z,31.72
2019-06-26T15:17:15.353Z,30.23
2019-06-26T15:22:19.490Z,31.27
2019-06-26T15:27:24.157Z,31.10
2019-06-26T15:32:29.363Z,29.99
2019-06-26T15:37:33.843Z,31.94
2019-06-26T15:42:37.883Z,31.36
2019-06-26T15:47:41.975Z,31.68
2019-06-26T15:52:46.553Z,31.82
2019-06-26T15:57:50.599Z,31.34
2019-06-26T16:02:54.573Z,30.44
2019-06-26T16:07:58.683Z,30.15
2019-06-26T16:13:02.715Z,29.07
2019-06-26T16:18:06.747Z,29.95
2019-06-26T16:23:10.823Z,30.14
2019-06-26T16:28:15.149Z,29.08
2019-06-26T16:33:19.212Z,31.55
2019-06-26T16:38:23.211Z,32.18
2019-06-26T16:43:27.217Z,32.29
2019-06-26T16:48:31.251Z,33.74
2019-06-26T16:53:35.785Z,34.33
2019-06-26T16:58:40.595Z,34.64
2019-06-26T17:03:44.863Z,34.89
2019-06-26T17:08:48.976Z,35.95
2019-06-26T17:13:53.249Z,36.24
2019-06-26T17:18:57.326Z,36.68
2019-06-26T17:24:06.457Z,37.67
2019-06-26T17:29:10.695Z,37.90
2019-06-26T17:34:14.784Z,38.09
2019-06-26T17:39:18.916Z,38.41
2019-06-26T17:44:23.127Z,37.73
2019-06-26T17:49:27.561Z,37.90
2019-06-26T17:54:31.994Z,37.59
2019-06-26T17:59:36.119Z,38.17
2019-06-26T18:04:40.731Z,38.26
2019-06-26T18:10:03.637Z,38.51
2019-06-26T18:15:08.699Z,39.48
2019-06-26T18:20:13.558Z,39.47
2019-06-26T18:25:17.886Z,39.82
2019-06-26T18:30:23.026Z,39.95
2019-06-26T18:35:27.639Z,39.71
2019-06-26T18:40:31.732Z,41.43
2019-06-26T18:45:35.861Z,42.32
2019-06-26T18:50:39.896Z,43.26
2019-06-26T18:55:44.649Z,45.44
2019-06-26T19:00:54.793Z,46.02
2019-06-26T19:05:58.827Z,46.41
2019-06-26T19:11:03.106Z,46.40
2019-06-26T19:16:15.651Z,47.07
2019-06-26T19:21:20.689Z,47.65
2019-06-26T19:26:24.881Z,47.52
2019-06-26T19:31:28.970Z,47.76
2019-06-26T19:36:48.786Z,48.74
2019-06-26T19:41:38.750Z,49.39
2019-06-26T19:46:43.497Z,50.38
2019-06-26T19:51:47.686Z,51.07
2019-06-26T19:56:51.836Z,51.85
2019-06-26T20:01:58.323Z,52.72
2019-06-26T20:07:02.785Z,53.19
2019-06-26T20:12:06.873Z,53.81
2019-06-26T20:17:12.191Z,54.96
2019-06-26T20:22:17.609Z,55.62
2019-06-26T20:27:24.040Z,55.96
2019-06-26T20:32:29.455Z,55.66
2019-06-26T20:37:33.695Z,55.32
2019-06-26T20:42:37.926Z,57.03
2019-06-26T20:47:42.767Z,57.29
2019-06-26T20:52:47.734Z,57.37
2019-06-26T20:57:51.798Z,57.86
2019-06-26T21:02:55.850Z,58.87
2019-06-26T21:07:59.891Z,58.61
2019-06-26T21:13:03.912Z,58.54
2019-06-26T21:18:09.566Z,58.92
2019-06-26T21:23:19.029Z,59.82
2019-06-26T21:28:20.012Z,59.93
2019-06-26T21:33:24.014Z,59.61
2019-06-26T21:38:28.140Z,58.99
2019-06-26T21:43:32.199Z,59.15
2019-06-26T21:48:36.255Z,58.79
2019-06-26T21:53:40.331Z,58.26
2019-06-26T21:58:44.462Z,58.32
2019-06-26T22:03:48.774Z,59.33
2019-06-26T22:08:52.983Z,59.47
2019-06-26T22:13:57.102Z,59.97
2019-06-26T22:19:01.179Z,60.21
2019-06-26T22:24:05.232Z,60.98
2019-06-26T22:29:09.370Z,61.52
2019-06-26T22:34:13.417Z,62.44
2019-06-26T22:39:17.718Z,62.89
2019-06-26T22:44:22.089Z,64.11
2019-06-26T22:49:26.143Z,65.17
2019-06-26T22:54:30.199Z,66.78
2019-06-26T22:59:34.249Z,68.17
2019-06-26T23:04:38.585Z,69.53
2019-06-26T23:09:42.599Z,69.81
2019-06-26T23:14:47.503Z,71.41
2019-06-26T23:19:51.791Z,73.40
2019-06-26T23:24:55.886Z,74.17
2019-06-26T23:29:59.893Z,75.46
2019-06-26T23:35:04.045Z,76.05
2019-06-26T23:40:08.191Z,77.61
2019-06-26T23:45:12.478Z,77.82
2019-06-26T23:50:17.060Z,78.59
2019-06-26T23:55:21.466Z,79.03
